CST,Max TemperatureF,Mean TemperatureF,Min TemperatureF,Max Dew PointF,MeanDew PointF,Min DewpointF,Max Humidity, Mean Humidity, Min Humidity, Max Sea Level PressureIn, Mean Sea Level PressureIn, Min Sea Level PressureIn, Max VisibilityMiles, Mean VisibilityMiles, Min VisibilityMiles, Max Wind SpeedMPH, Mean Wind SpeedMPH, Max Gust SpeedMPH,PrecipitationIn, CloudCover, Events, WindDirDegrees
2013-11-1,62,54,46,46,43,39,93,75,45,29.87,29.75,29.68,10,10,10,16,6,26,0.00,1,,250
2013-11-2,53,45,37,41,38,34,87,74,50,30.20,30.03,29.86,10,10,10,13,4,20,0.00,4,,293
2013-11-3,55,44,32,37,33,32,100,71,41,30.32,30.24,30.18,10,10,10,9,2,,0.00,0,,152
2013-11-4,55,48,42,46,40,36,87,70,58,30.27,30.21,30.17,10,10,10,14,9,22,0.00,1,Rain,155
2013-11-5,62,55,48,52,48,45,100,78,59,30.30,30.19,30.07,10,10,7,15,7,22,0.11,8,Rain,153
2013-11-6,59,48,37,54,45,34,100,89,72,30.26,30.09,29.96,10,9,2,21,13,31,0.29,6,Rain,249
2013-11-7,53,42,32,36,33,32,100,76,47,30.40,30.33,30.27,10,10,10,10,3,9,0.00,0,,273
2013-11-8,55,42,28,36,32,28,100,68,38,30.38,30.28,30.13,10,10,7,13,4,18,0.00,0,,170
2013-11-9,64,53,42,39,37,32,76,58,39,30.23,30.14,30.10,10,10,10,14,8,20,0.00,0,,220
2013-11-10,53,42,32,37,33,30,100,66,41,30.43,30.34,30.23,10,9,4,9,3,,0.00,0,,350
2013-11-11,62,47,32,50,34,30,100,67,36,30.44,30.25,30.12,10,10,5,18,6,30,0.03,5,Rain,207
2013-11-12,33,28,23,32,21,18,100,71,52,30.74,30.66,30.45,10,10,10,17,10,24,0.00,2,,353
2013-11-13,42,30,17,23,19,16,93,64,36,30.70,30.56,30.35,10,10,5,13,3,18,0.00,0,,182
2013-11-14,51,42,32,27,23,19,65,50,32,30.35,30.21,30.09,10,10,10,17,9,26,0.00,0,,187
2013-11-15,51,46,41,45,33,25,93,59,43,30.10,30.04,29.98,10,10,10,10,8,17,0.00,7,,175
2013-11-16,62,54,46,61,53,45,94,89,82,29.97,29.85,29.70,10,10,7,21,12,33,0.08,7,Rain-Thunderstorm,176
2013-11-17,73,62,48,64,49,23,94,64,22,29.98,29.67,29.47,10,10,2,26,14,44,0.52,4,Rain-Thunderstorm,226
2013-11-18,53,44,33,37,33,27,87,62,35,30.31,30.17,30.00,10,10,10,16,6,22,0.00,0,,296
2013-11-19,44,38,30,32,28,25,93,74,49,30.36,30.29,30.23,10,10,7,8,3,,0.00,0,,69
2013-11-20,37,32,28,32,29,27,93,88,81,30.23,30.21,30.18,10,10,10,9,3,,0.00,0,,123
2013-11-21,50,49,48,50,49,46,100,98,93,30.19,30.16,30.11,10,4,0,8,3,,0.09,8,Rain,161
2013-11-22,50,42,33,50,38,32,100,93,87,30.50,30.38,30.19,10,8,0,14,7,24,0.00,8,Fog,335
2013-11-23,33,26,19,32,20,12,93,70,48,30.71,30.60,30.49,10,10,10,17,8,25,0.00,2,,338
2013-11-24,28,22,15,16,12,5,86,64,37,30.76,30.64,30.47,10,10,10,7,4,,0.00,0,,17
2013-11-25,33,30,26,25,19,14,75,62,55,30.46,30.30,30.18,10,10,10,10,5,,0.00,7,,177
2013-11-26,42,33,23,28,24,10,87,69,51,30.22,30.13,30.04,10,10,10,17,5,28,0.00,6,,334
2013-11-27,28,24,19,16,9,5,86,57,43,30.35,30.30,30.22,10,10,10,17,10,28,0.00,0,,323
2013-11-28,46,34,21,25,18,10,75,58,37,30.49,30.34,30.27,10,10,10,17,6,25,0.00,0,,191
2013-11-29,44,34,23,28,24,19,87,71,49,30.60,30.50,30.40,10,10,10,8,3,,0.00,0,,115
2013-11-30,53,40,28,34,31,25,86,67,44,30.40,30.25,30.12,10,10,10,14,7,21,0.00,0,,172